Time;durP1;ratioP1;P1;durP2;ratioP2;P2;SDS_P1;SDS_P2;PMS_P1;PMS_P2;Temp;Humidity;BMP_temperature;BMP_pressure;BME280_temperature;BME280_humidity;BME280_pressure;Samples;Min_cycle;Max_cycle;Signal;HPM_P1;HPM_P2
2023/07/20 00:00:33;;;;;;;5.43;2.58;;;;;;;;;;4989736;28;20470;-73
2023/07/20 00:03:19;;;;;;;7.68;2.40;;;;;;;;;;4994062;28;20030;-74
2023/07/20 00:06:04;;;;;;;4.88;2.00;;;;;;;;;;4993129;28;20120;-72
2023/07/20 00:08:49;;;;;;;5.07;2.17;;;;;;;;;;4985199;28;20023;-72
2023/07/20 00:11:38;;;;;;;4.43;2.13;;;;;;;;;;5010390;28;20034;-74
2023/07/20 00:14:23;;;;;;;3.47;1.70;;;;;;;;;;4998234;28;20097;-66
2023/07/20 00:17:08;;;;;;;3.85;1.70;;;;;;;;;;4981121;28;20034;-68
2023/07/20 00:19:53;;;;;;;5.18;2.00;;;;;;;;;;4992037;28;20038;-66
2023/07/20 00:22:39;;;;;;;3.90;2.00;;;;;;;;;;4990967;28;20096;-66
2023/07/20 00:25:24;;;;;;;3.53;2.13;;;;;;;;;;4996396;28;20030;-66
2023/07/20 00:28:09;;;;;;;3.53;1.73;;;;;;;;;;4999800;28;20030;-69
2023/07/20 00:30:55;;;;;;;3.25;2.03;;;;;;;;;;4989576;28;20104;-68
2023/07/20 00:33:40;;;;;;;2.30;1.90;;;;;;;;;;4991185;28;20041;-71
2023/07/20 00:36:25;;;;;;;5.60;1.90;;;;;;;;;;4997388;28;20026;-71
2023/07/20 00:39:10;;;;;;;4.40;1.95;;;;;;;;;;4996717;28;20022;-71
2023/07/20 00:41:55;;;;;;;3.00;1.73;;;;;;;;;;4985847;28;20030;-70
2023/07/20 00:44:41;;;;;;;2.30;1.75;;;;;;;;;;4990336;28;20030;-73
2023/07/20 00:47:27;;;;;;;4.07;2.00;;;;;;;;;;4997883;28;20366;-68
2023/07/20 00:50:12;;;;;;;2.90;2.05;;;;;;;;;;4986661;28;20144;-71
2023/07/20 00:52:57;;;;;;;2.75;1.67;;;;;;;;;;4978356;28;20030;-70
2023/07/20 00:55:44;;;;;;;4.65;2.20;;;;;;;;;;4997718;28;20025;-71
2023/07/20 00:58:29;;;;;;;5.60;2.33;;;;;;;;;;4993046;28;20026;-72
2023/07/20 01:01:14;;;;;;;4.45;1.95;;;;;;;;;;4995409;28;20042;-71
2023/07/20 01:03:59;;;;;;;2.60;1.90;;;;;;;;;;4977082;28;20073;-71
2023/07/20 01:06:48;;;;;;;5.20;2.22;;;;;;;;;;4994348;28;20054;-72
2023/07/20 01:09:39;;;;;;;3.47;1.95;;;;;;;;;;4996041;28;20026;-68
2023/07/20 01:12:30;;;;;;;5.03;2.03;;;;;;;;;;5014081;28;20131;-67
2023/07/20 01:15:15;;;;;;;6.38;1.95;;;;;;;;;;5017200;28;20061;-67
2023/07/20 01:18:04;;;;;;;4.25;1.83;;;;;;;;;;4985167;28;20034;-66
2023/07/20 01:20:49;;;;;;;3.17;1.77;;;;;;;;;;4998585;28;20523;-67
2023/07/20 01:24:07;;;;;;;3.83;2.00;;;;;;;;;;5001880;28;20479;-67
2023/07/20 01:27:05;;;;;;;2.90;2.08;;;;;;;;;;4971665;28;20489;-69
2023/07/20 01:30:09;;;;;;;5.13;1.85;;;;;;;;;;4975285;28;20420;-71
2023/07/20 01:32:56;;;;;;;3.03;1.73;;;;;;;;;;4998617;28;20030;-70
2023/07/20 01:35:43;;;;;;;4.47;1.95;;;;;;;;;;4992470;28;20021;-71
2023/07/20 01:38:29;;;;;;;3.30;2.00;;;;;;;;;;4996652;28;20054;-71
2023/07/20 01:41:14;;;;;;;6.25;2.25;;;;;;;;;;4991190;28;20512;-73
2023/07/20 01:44:00;;;;;;;3.53;1.80;;;;;;;;;;4987931;28;20034;-65
2023/07/20 01:46:45;;;;;;;5.05;1.90;;;;;;;;;;4971212;28;20092;-68
2023/07/20 01:49:30;;;;;;;5.00;2.17;;;;;;;;;;4988923;28;20030;-68
2023/07/20 01:52:15;;;;;;;4.25;2.58;;;;;;;;;;4976579;28;20144;-67
2023/07/20 01:55:01;;;;;;;3.50;2.03;;;;;;;;;;4990423;28;20084;-68
2023/07/20 01:57:46;;;;;;;3.78;2.15;;;;;;;;;;5000959;28;20478;-67
2023/07/20 02:00:31;;;;;;;2.53;2.03;;;;;;;;;;5000666;28;20038;-71
2023/07/20 02:03:16;;;;;;;4.00;1.95;;;;;;;;;;4997574;28;20033;-69
2023/07/20 02:06:02;;;;;;;6.28;2.00;;;;;;;;;;4989421;28;20036;-73
2023/07/20 02:08:47;;;;;;;4.07;2.28;;;;;;;;;;4995955;28;20054;-74
2023/07/20 02:11:32;;;;;;;4.20;2.08;;;;;;;;;;4994679;28;20117;-74
2023/07/20 02:14:17;;;;;;;5.65;1.70;;;;;;;;;;5007626;28;20026;-73
2023/07/20 02:17:03;;;;;;;3.05;1.65;;;;;;;;;;4999864;28;20030;-73
2023/07/20 02:19:50;;;;;;;5.05;2.40;;;;;;;;;;4993240;28;20093;-72
2023/07/20 02:22:37;;;;;;;2.25;1.77;;;;;;;;;;4987176;28;20046;-73
2023/07/20 02:25:22;;;;;;;4.55;2.05;;;;;;;;;;4990932;28;20022;-73
2023/07/20 02:28:08;;;;;;;2.55;1.50;;;;;;;;;;5005296;28;20065;-73
2023/07/20 02:30:54;;;;;;;4.65;2.10;;;;;;;;;;4999866;28;20026;-73
2023/07/20 02:33:39;;;;;;;4.68;1.88;;;;;;;;;;4979338;28;20076;-75
2023/07/20 02:36:24;;;;;;;3.40;1.90;;;;;;;;;;4989171;28;20513;-74
2023/07/20 02:39:10;;;;;;;3.60;2.03;;;;;;;;;;4992851;28;20033;-69
2023/07/20 02:41:55;;;;;;;6.75;2.60;;;;;;;;;;4993095;28;20448;-68
2023/07/20 02:44:40;;;;;;;5.00;2.00;;;;;;;;;;5007738;28;20022;-68
2023/07/20 02:47:26;;;;;;;4.43;2.10;;;;;;;;;;4993832;28;20397;-67
2023/07/20 02:50:13;;;;;;;6.43;2.15;;;;;;;;;;4996617;28;20486;-68
2023/07/20 02:52:58;;;;;;;5.93;2.60;;;;;;;;;;4979185;28;20057;-66
2023/07/20 02:55:43;;;;;;;4.15;1.92;;;;;;;;;;4984495;28;20022;-69
2023/07/20 02:58:29;;;;;;;3.65;2.20;;;;;;;;;;4985032;28;20034;-68
2023/07/20 03:01:15;;;;;;;4.45;2.03;;;;;;;;;;4998982;28;20060;-72
2023/07/20 03:04:00;;;;;;;4.32;2.10;;;;;;;;;;4991690;28;20038;-72
2023/07/20 03:06:45;;;;;;;5.03;2.17;;;;;;;;;;4986571;28;20022;-70
2023/07/20 03:09:30;;;;;;;4.35;2.30;;;;;;;;;;4977567;28;20045;-72
2023/07/20 03:12:16;;;;;;;3.70;2.03;;;;;;;;;;4990967;28;20030;-71
2023/07/20 03:15:01;;;;;;;4.60;2.00;;;;;;;;;;5001183;28;20038;-71
2023/07/20 03:17:46;;;;;;;4.18;1.80;;;;;;;;;;4981451;28;20033;-68
2023/07/20 03:20:32;;;;;;;3.92;2.25;;;;;;;;;;4994588;28;20042;-69
2023/07/20 03:23:17;;;;;;;5.40;2.67;;;;;;;;;;4991816;28;20185;-68
2023/07/20 03:26:02;;;;;;;5.03;2.20;;;;;;;;;;5002473;28;20094;-68
2023/07/20 03:28:48;;;;;;;4.60;2.30;;;;;;;;;;4989349;28;20060;-67
2023/07/20 03:31:33;;;;;;;3.92;1.92;;;;;;;;;;4982246;28;20030;-67
2023/07/20 03:34:19;;;;;;;4.20;2.25;;;;;;;;;;5005006;28;20026;-72
2023/07/20 03:37:04;;;;;;;4.97;2.50;;;;;;;;;;4977397;28;20303;-71
2023/07/20 03:39:50;;;;;;;4.30;2.08;;;;;;;;;;5000290;28;20038;-71
2023/07/20 03:42:36;;;;;;;7.75;2.72;;;;;;;;;;4992024;28;20498;-72
2023/07/20 03:45:23;;;;;;;5.15;2.10;;;;;;;;;;4996722;28;20036;-71
2023/07/20 03:48:09;;;;;;;5.47;2.00;;;;;;;;;;4994564;28;20077;-72
2023/07/20 03:50:54;;;;;;;4.65;1.83;;;;;;;;;;4999336;28;20481;-69
2023/07/20 03:53:39;;;;;;;4.88;2.35;;;;;;;;;;4990869;28;20034;-65
2023/07/20 03:56:25;;;;;;;5.90;2.05;;;;;;;;;;4997357;28;20572;-65
2023/07/20 03:59:10;;;;;;;5.40;2.05;;;;;;;;;;5002555;28;20034;-66
2023/07/20 04:01:55;;;;;;;5.25;2.53;;;;;;;;;;4980573;28;20088;-65
2023/07/20 04:04:40;;;;;;;6.00;2.65;;;;;;;;;;5005042;28;20023;-66
2023/07/20 04:07:26;;;;;;;4.72;2.28;;;;;;;;;;4992990;28;20029;-65
2023/07/20 04:10:11;;;;;;;5.28;2.08;;;;;;;;;;4988384;28;20532;-65
2023/07/20 04:12:56;;;;;;;5.68;1.98;;;;;;;;;;4994612;28;20037;-67
2023/07/20 04:15:42;;;;;;;5.50;2.70;;;;;;;;;;4993416;28;20038;-70
2023/07/20 04:18:27;;;;;;;6.03;2.22;;;;;;;;;;4990604;28;20023;-67
2023/07/20 04:21:12;;;;;;;5.72;2.25;;;;;;;;;;4986704;28;20042;-68
2023/07/20 04:23:58;;;;;;;3.55;2.00;;;;;;;;;;4977055;28;20038;-73
2023/07/20 04:26:44;;;;;;;4.57;2.10;;;;;;;;;;4969127;28;20086;-66
2023/07/20 04:29:29;;;;;;;5.57;2.55;;;;;;;;;;4989243;28;20451;-67
2023/07/20 04:32:15;;;;;;;5.30;2.20;;;;;;;;;;5001507;28;20068;-68
2023/07/20 04:35:00;;;;;;;5.70;2.33;;;;;;;;;;4989426;28;20734;-69
2023/07/20 04:37:45;;;;;;;4.70;2.00;;;;;;;;;;4990518;28;20036;-68
2023/07/20 04:40:31;;;;;;;5.72;2.63;;;;;;;;;;4971347;28;20077;-67
2023/07/20 04:43:17;;;;;;;2.53;1.73;;;;;;;;;;4989078;28;20038;-67
2023/07/20 04:46:02;;;;;;;3.25;2.38;;;;;;;;;;4975519;28;20030;-65
2023/07/20 04:48:47;;;;;;;4.18;1.95;;;;;;;;;;5000033;28;20495;-68
2023/07/20 04:51:33;;;;;;;3.78;2.00;;;;;;;;;;5003253;28;20165;-66
2023/07/20 04:54:18;;;;;;;3.70;2.08;;;;;;;;;;4963904;28;20458;-64
2023/07/20 04:57:10;;;;;;;3.83;1.98;;;;;;;;;;4987018;28;20074;-67
2023/07/20 04:59:55;;;;;;;4.03;1.88;;;;;;;;;;5008481;28;20033;-64
2023/07/20 05:02:41;;;;;;;5.32;2.50;;;;;;;;;;4989298;28;20038;-66
2023/07/20 05:05:26;;;;;;;3.95;2.30;;;;;;;;;;4988191;28;20489;-66
2023/07/20 05:08:11;;;;;;;6.47;2.70;;;;;;;;;;4988402;28;20380;-68
2023/07/20 05:10:56;;;;;;;4.55;2.15;;;;;;;;;;4996856;28;20034;-68
2023/07/20 05:13:41;;;;;;;4.18;2.13;;;;;;;;;;4979773;28;20488;-70
2023/07/20 05:16:27;;;;;;;6.07;2.35;;;;;;;;;;4987836;28;20118;-69
2023/07/20 05:19:12;;;;;;;3.83;2.10;;;;;;;;;;4986719;28;20490;-70
2023/07/20 05:21:57;;;;;;;6.43;2.50;;;;;;;;;;4988486;28;20526;-69
2023/07/20 05:24:43;;;;;;;5.00;2.00;;;;;;;;;;4981544;28;20038;-67
2023/07/20 05:27:28;;;;;;;5.32;2.63;;;;;;;;;;4982574;28;20025;-67
2023/07/20 05:30:13;;;;;;;4.45;1.80;;;;;;;;;;4968473;28;20030;-69
2023/07/20 05:32:58;;;;;;;4.80;1.90;;;;;;;;;;4985479;28;20437;-69
2023/07/20 05:35:44;;;;;;;6.20;2.13;;;;;;;;;;4980862;28;20038;-71
2023/07/20 05:38:29;;;;;;;5.70;2.47;;;;;;;;;;4967905;28;20020;-69
2023/07/20 05:41:14;;;;;;;5.43;2.10;;;;;;;;;;4994044;28;20042;-71
2023/07/20 05:44:00;;;;;;;4.90;2.05;;;;;;;;;;4982585;28;20414;-72
2023/07/20 05:46:45;;;;;;;4.68;2.00;;;;;;;;;;4997872;28;20041;-72
2023/07/20 05:49:30;;;;;;;4.68;1.85;;;;;;;;;;4984875;28;20030;-71
2023/07/20 05:52:15;;;;;;;4.72;1.95;;;;;;;;;;4988491;28;20482;-70
2023/07/20 05:55:01;;;;;;;8.90;2.40;;;;;;;;;;4988592;28;20027;-71
2023/07/20 05:57:47;;;;;;;5.07;1.90;;;;;;;;;;4984449;28;20045;-70
2023/07/20 06:00:32;;;;;;;10.98;2.40;;;;;;;;;;4990394;28;20053;-72
2023/07/20 06:03:18;;;;;;;7.53;2.40;;;;;;;;;;4978259;28;20042;-79
2023/07/20 06:06:06;;;;;;;8.02;2.65;;;;;;;;;;4994526;28;20030;-80
2023/07/20 06:08:52;;;;;;;5.72;2.53;;;;;;;;;;4983953;28;20038;-80
2023/07/20 06:11:37;;;;;;;3.80;2.00;;;;;;;;;;4989987;28;20516;-79
2023/07/20 06:14:23;;;;;;;6.55;2.30;;;;;;;;;;4988381;28;20121;-77
2023/07/20 06:17:08;;;;;;;4.90;2.13;;;;;;;;;;4994153;28;20092;-79
2023/07/20 06:19:53;;;;;;;2.55;1.58;;;;;;;;;;4992291;28;20042;-68
2023/07/20 06:22:38;;;;;;;4.28;2.13;;;;;;;;;;4981376;28;20068;-73
2023/07/20 06:25:23;;;;;;;2.65;1.73;;;;;;;;;;4999805;28;20172;-74
2023/07/20 06:28:09;;;;;;;4.22;2.28;;;;;;;;;;4979629;28;20537;-74
2023/07/20 06:30:59;;;;;;;6.93;2.30;;;;;;;;;;4993825;28;20038;-75
2023/07/20 06:33:44;;;;;;;6.93;2.58;;;;;;;;;;4998652;28;20026;-72
2023/07/20 06:36:29;;;;;;;3.42;1.92;;;;;;;;;;4982859;28;20041;-67
2023/07/20 06:39:15;;;;;;;4.20;2.03;;;;;;;;;;4980392;28;20029;-70
2023/07/20 06:42:00;;;;;;;4.18;2.13;;;;;;;;;;4990197;28;20122;-73
2023/07/20 06:44:45;;;;;;;3.75;1.77;;;;;;;;;;4983217;28;20623;-73
2023/07/20 06:47:30;;;;;;;3.10;1.98;;;;;;;;;;4985415;28;20022;-72
2023/07/20 06:50:16;;;;;;;5.53;2.58;;;;;;;;;;4986717;28;20477;-71
2023/07/20 06:53:03;;;;;;;13.45;3.70;;;;;;;;;;4987211;28;20106;-71
2023/07/20 06:55:49;;;;;;;6.88;2.00;;;;;;;;;;4981773;28;20750;-70
2023/07/20 06:58:34;;;;;;;3.53;1.90;;;;;;;;;;4995529;28;20488;-78
2023/07/20 07:01:21;;;;;;;2.83;1.80;;;;;;;;;;4980240;28;20022;-78
2023/07/20 07:04:06;;;;;;;3.97;2.00;;;;;;;;;;4981187;28;20229;-76
2023/07/20 07:06:51;;;;;;;4.43;2.15;;;;;;;;;;4980930;28;20069;-76
2023/07/20 07:09:36;;;;;;;5.85;2.38;;;;;;;;;;4984350;28;20025;-80
2023/07/20 07:12:22;;;;;;;5.30;2.38;;;;;;;;;;4980137;28;20456;-89
2023/07/20 07:15:07;;;;;;;5.32;2.40;;;;;;;;;;4981676;28;20045;-75
2023/07/20 07:17:53;;;;;;;4.25;1.98;;;;;;;;;;4995766;28;20098;-73
2023/07/20 07:20:38;;;;;;;4.28;2.13;;;;;;;;;;4982811;28;20414;-71
2023/07/20 07:23:23;;;;;;;4.72;1.95;;;;;;;;;;4983420;28;20036;-71
2023/07/20 07:26:09;;;;;;;3.85;2.15;;;;;;;;;;4982394;28;20026;-72
2023/07/20 07:28:54;;;;;;;4.82;2.30;;;;;;;;;;4982756;28;20477;-73
2023/07/20 07:31:40;;;;;;;4.57;1.95;;;;;;;;;;4993680;28;20034;-74
2023/07/20 07:34:26;;;;;;;2.55;1.60;;;;;;;;;;4983153;28;20486;-73
2023/07/20 07:37:11;;;;;;;5.50;2.03;;;;;;;;;;4995309;28;20026;-73
2023/07/20 07:39:57;;;;;;;5.70;2.33;;;;;;;;;;4972396;28;20019;-74
2023/07/20 07:42:42;;;;;;;12.10;2.15;;;;;;;;;;4987129;28;20038;-73
2023/07/20 07:45:27;;;;;;;4.45;1.88;;;;;;;;;;4986279;28;20513;-72
2023/07/20 07:48:14;;;;;;;3.42;2.08;;;;;;;;;;4975402;28;20108;-74
2023/07/20 07:50:59;;;;;;;5.55;2.00;;;;;;;;;;4992420;28;20045;-73
2023/07/20 07:53:45;;;;;;;3.95;1.95;;;;;;;;;;4986615;28;20121;-74
2023/07/20 07:56:30;;;;;;;5.15;1.90;;;;;;;;;;4984474;28;20042;-76
2023/07/20 07:59:16;;;;;;;6.88;2.33;;;;;;;;;;4985327;28;20092;-74
2023/07/20 08:02:02;;;;;;;7.40;2.45;;;;;;;;;;4988353;28;20121;-76
2023/07/20 08:04:47;;;;;;;10.30;2.58;;;;;;;;;;4985927;28;20043;-76
2023/07/20 08:07:32;;;;;;;3.05;1.90;;;;;;;;;;4991532;28;20117;-74
2023/07/20 08:10:18;;;;;;;8.15;2.40;;;;;;;;;;4986096;28;20022;-73
2023/07/20 08:13:03;;;;;;;6.03;2.60;;;;;;;;;;4983043;28;20450;-75
2023/07/20 08:15:50;;;;;;;3.42;1.65;;;;;;;;;;4983339;28;20034;-71
2023/07/20 08:18:35;;;;;;;7.18;3.65;;;;;;;;;;4997429;28;20021;-76
2023/07/20 08:21:21;;;;;;;7.90;2.42;;;;;;;;;;4983743;28;20047;-73
2023/07/20 08:24:06;;;;;;;5.00;1.73;;;;;;;;;;4994191;28;20328;-73
2023/07/20 08:26:51;;;;;;;5.28;1.95;;;;;;;;;;4984760;28;20058;-73
2023/07/20 08:29:37;;;;;;;4.32;2.55;;;;;;;;;;4990747;28;20045;-72
2023/07/20 08:32:22;;;;;;;5.65;2.10;;;;;;;;;;4994961;28;20126;-72
2023/07/20 08:35:08;;;;;;;3.38;1.75;;;;;;;;;;4981798;28;20065;-73
2023/07/20 08:37:53;;;;;;;3.85;2.17;;;;;;;;;;4993480;28;20340;-72
2023/07/20 08:40:43;;;;;;;2.60;1.80;;;;;;;;;;4995558;28;20018;-71
2023/07/20 08:43:28;;;;;;;5.05;2.33;;;;;;;;;;4997745;28;20034;-75
2023/07/20 08:46:14;;;;;;;4.07;2.22;;;;;;;;;;4982390;28;20021;-73
2023/07/20 08:49:00;;;;;;;4.78;1.77;;;;;;;;;;4983811;28;20126;-73
2023/07/20 08:51:46;;;;;;;6.53;2.53;;;;;;;;;;4995908;28;20035;-75
2023/07/20 08:54:34;;;;;;;3.22;2.05;;;;;;;;;;4995063;28;20022;-74
2023/07/20 08:57:21;;;;;;;4.05;1.75;;;;;;;;;;4981823;28;20026;-73
2023/07/20 09:00:11;;;;;;;2.65;2.03;;;;;;;;;;4988200;28;20462;-73
2023/07/20 09:02:57;;;;;;;4.07;1.67;;;;;;;;;;4984785;28;20068;-71
2023/07/20 09:05:42;;;;;;;5.32;2.17;;;;;;;;;;4994658;28;20096;-75
2023/07/20 09:08:27;;;;;;;6.15;2.75;;;;;;;;;;4979949;28;20100;-72
2023/07/20 09:11:16;;;;;;;2.67;1.80;;;;;;;;;;4993271;28;20030;-73
2023/07/20 09:14:06;;;;;;;3.03;1.80;;;;;;;;;;4998165;28;20029;-72
2023/07/20 09:16:55;;;;;;;5.00;2.10;;;;;;;;;;4996099;28;20033;-70
2023/07/20 09:19:47;;;;;;;4.95;2.03;;;;;;;;;;4978851;28;20026;-73
2023/07/20 09:22:32;;;;;;;4.38;2.58;;;;;;;;;;4980374;28;20058;-74
2023/07/20 09:25:19;;;;;;;4.57;1.80;;;;;;;;;;4981465;28;20106;-71
2023/07/20 09:28:05;;;;;;;3.72;2.25;;;;;;;;;;4996064;28;20062;-70
2023/07/20 09:30:50;;;;;;;4.43;1.92;;;;;;;;;;4982129;28;20034;-74
2023/07/20 09:33:38;;;;;;;4.10;2.00;;;;;;;;;;4986053;28;20041;-75
2023/07/20 09:36:26;;;;;;;3.28;1.92;;;;;;;;;;4980719;28;20410;-73
2023/07/20 09:39:11;;;;;;;2.58;1.50;;;;;;;;;;4982218;28;20801;-74
2023/07/20 09:42:00;;;;;;;3.42;2.10;;;;;;;;;;4981661;28;20038;-74
2023/07/20 09:44:46;;;;;;;2.67;1.73;;;;;;;;;;4991491;28;20658;-71
2023/07/20 09:47:33;;;;;;;2.92;1.67;;;;;;;;;;4984110;28;20473;-73
2023/07/20 09:50:18;;;;;;;2.78;1.52;;;;;;;;;;4995094;28;20584;-75
2023/07/20 09:53:03;;;;;;;5.03;1.63;;;;;;;;;;4992046;28;20061;-75
2023/07/20 09:55:48;;;;;;;3.97;2.10;;;;;;;;;;4982409;28;20042;-73
2023/07/20 09:58:34;;;;;;;6.25;2.28;;;;;;;;;;4981306;28;20026;-71
2023/07/20 10:01:21;;;;;;;3.35;2.00;;;;;;;;;;4978550;28;20018;-75
2023/07/20 10:04:08;;;;;;;3.45;2.08;;;;;;;;;;4992741;28;20430;-76
2023/07/20 10:06:54;;;;;;;4.03;2.05;;;;;;;;;;4978299;28;20061;-80
2023/07/20 10:09:42;;;;;;;3.22;2.25;;;;;;;;;;4979381;28;20029;-80
2023/07/20 10:12:27;;;;;;;2.28;1.65;;;;;;;;;;4992157;28;20022;-64
2023/07/20 10:15:45;;;;;;;4.00;1.77;;;;;;;;;;4991344;28;20090;-65
2023/07/20 10:18:49;;;;;;;4.25;1.75;;;;;;;;;;4960768;28;20201;-73
2023/07/20 10:21:38;;;;;;;4.70;2.03;;;;;;;;;;4994867;28;20057;-73
2023/07/20 10:24:24;;;;;;;3.90;1.67;;;;;;;;;;4980011;28;20035;-74
2023/07/20 10:27:09;;;;;;;3.83;1.52;;;;;;;;;;4980067;28;20034;-74
2023/07/20 10:29:55;;;;;;;3.53;1.65;;;;;;;;;;4981810;28;20037;-69
2023/07/20 10:32:41;;;;;;;5.70;2.22;;;;;;;;;;4983813;28;20038;-69
2023/07/20 10:35:27;;;;;;;3.00;1.30;;;;;;;;;;4983228;28;20117;-68
2023/07/20 10:38:12;;;;;;;3.38;1.95;;;;;;;;;;4981488;28;20701;-72
2023/07/20 10:40:57;;;;;;;4.90;2.08;;;;;;;;;;4978943;28;20042;-71
2023/07/20 10:43:46;;;;;;;5.13;1.58;;;;;;;;;;4980408;28;20113;-71
2023/07/20 10:46:34;;;;;;;2.53;1.42;;;;;;;;;;4978039;28;20497;-73
2023/07/20 10:49:26;;;;;;;2.72;1.50;;;;;;;;;;4992601;28;20499;-72
2023/07/20 10:52:11;;;;;;;5.95;1.52;;;;;;;;;;4981755;28;20035;-71
2023/07/20 10:55:09;;;;;;;4.97;1.50;;;;;;;;;;4984123;28;20062;-73
2023/07/20 10:58:08;;;;;;;3.38;1.50;;;;;;;;;;4982719;28;20030;-73
2023/07/20 11:00:57;;;;;;;3.33;1.50;;;;;;;;;;4992115;28;20042;-73
2023/07/20 11:03:42;;;;;;;3.72;2.15;;;;;;;;;;4981412;28;20026;-73
2023/07/20 11:06:27;;;;;;;2.67;1.48;;;;;;;;;;4979841;28;20569;-71
2023/07/20 11:09:16;;;;;;;1.95;1.33;;;;;;;;;;4978976;28;20454;-71
2023/07/20 11:12:12;;;;;;;1.42;1.33;;;;;;;;;;4977691;28;20054;-71
2023/07/20 11:14:57;;;;;;;2.63;1.50;;;;;;;;;;4980743;28;20113;-67
2023/07/20 11:17:42;;;;;;;3.80;1.75;;;;;;;;;;4978002;28;20025;-75
2023/07/20 11:20:27;;;;;;;3.03;1.50;;;;;;;;;;4977865;28;20509;-73
2023/07/20 11:23:13;;;;;;;4.18;1.48;;;;;;;;;;4980649;28;20400;-71
2023/07/20 11:26:00;;;;;;;1.23;1.05;;;;;;;;;;4982840;28;20651;-72
2023/07/20 11:28:49;;;;;;;1.83;1.30;;;;;;;;;;4983806;28;20031;-70
2023/07/20 11:31:34;;;;;;;;;;;;;;;;;;4998025;28;20030;-67
2023/07/20 11:34:20;;;;;;;2.10;1.35;;;;;;;;;;4984769;28;20354;-73
2023/07/20 11:37:06;;;;;;;3.15;1.67;;;;;;;;;;4996857;28;20034;-74
2023/07/20 11:39:55;;;;;;;2.63;1.50;;;;;;;;;;4985577;28;20352;-76
2023/07/20 11:42:40;;;;;;;3.80;1.55;;;;;;;;;;4982293;28;20065;-74
2023/07/20 11:45:27;;;;;;;3.88;1.75;;;;;;;;;;4984091;28;20033;-72
2023/07/20 11:48:16;;;;;;;2.60;1.52;;;;;;;;;;4981306;28;20402;-75
2023/07/20 11:51:01;;;;;;;2.15;1.33;;;;;;;;;;4981610;28;20026;-71
2023/07/20 11:53:46;;;;;;;2.10;1.30;;;;;;;;;;4982941;28;20469;-74
2023/07/20 11:56:32;;;;;;;2.38;1.60;;;;;;;;;;4981977;28;20489;-72
2023/07/20 11:59:18;;;;;;;3.00;1.42;;;;;;;;;;4985184;28;20023;-72
2023/07/20 12:02:03;;;;;;;3.20;1.33;;;;;;;;;;4996599;28;20137;-70
2023/07/20 12:04:49;;;;;;;3.17;1.30;;;;;;;;;;4980054;28;20026;-76
2023/07/20 12:07:36;;;;;;;2.13;1.30;;;;;;;;;;4980655;28;20030;-75
2023/07/20 12:10:26;;;;;;;3.08;1.73;;;;;;;;;;5001055;28;20033;-70
2023/07/20 12:13:11;;;;;;;1.55;1.35;;;;;;;;;;4982547;28;20061;-68
2023/07/20 12:16:06;;;;;;;2.88;1.45;;;;;;;;;;4991882;28;20112;-71
2023/07/20 12:18:58;;;;;;;6.97;1.60;;;;;;;;;;4983275;28;20033;-69
2023/07/20 12:21:43;;;;;;;3.00;1.40;;;;;;;;;;4982875;28;20054;-71
2023/07/20 12:24:29;;;;;;;1.77;1.05;;;;;;;;;;4982844;28;20125;-70
2023/07/20 12:27:16;;;;;;;2.63;1.20;;;;;;;;;;4978281;28;20517;-69
2023/07/20 12:30:02;;;;;;;1.23;1.13;;;;;;;;;;4981060;28;20062;-79
2023/07/20 12:32:48;;;;;;;2.30;1.33;;;;;;;;;;4991804;28;20034;-75
2023/07/20 12:35:33;;;;;;;1.42;1.20;;;;;;;;;;4998594;28;20018;-73
2023/07/20 12:38:18;;;;;;;3.10;1.83;;;;;;;;;;4984465;28;20022;-75
2023/07/20 12:41:03;;;;;;;2.00;1.45;;;;;;;;;;4980161;28;20041;-72
2023/07/20 12:43:49;;;;;;;1.92;1.30;;;;;;;;;;4992754;28;20223;-74
2023/07/20 12:46:37;;;;;;;1.95;1.50;;;;;;;;;;4982947;28;20034;-73
2023/07/20 12:49:22;;;;;;;2.03;1.30;;;;;;;;;;4982254;28;20026;-75
2023/07/20 12:52:08;;;;;;;3.22;1.48;;;;;;;;;;4978158;28;20022;-76
2023/07/20 12:54:53;;;;;;;2.88;1.23;;;;;;;;;;4980507;28;20129;-77
2023/07/20 12:57:41;;;;;;;3.03;1.30;;;;;;;;;;4983596;28;20125;-79
2023/07/20 13:00:26;;;;;;;2.15;1.30;;;;;;;;;;4998149;28;20398;-74
2023/07/20 13:03:11;;;;;;;1.92;1.23;;;;;;;;;;4978821;28;20034;-72
2023/07/20 13:05:58;;;;;;;3.20;1.50;;;;;;;;;;4976803;28;20022;-75
2023/07/20 13:08:43;;;;;;;1.90;1.58;;;;;;;;;;4991551;28;20030;-73
2023/07/20 13:11:28;;;;;;;2.88;1.45;;;;;;;;;;4981927;28;20535;-75
2023/07/20 13:14:13;;;;;;;4.28;1.88;;;;;;;;;;4978725;28;20030;-74
2023/07/20 13:16:59;;;;;;;2.88;1.85;;;;;;;;;;4981019;28;20105;-72
2023/07/20 13:19:44;;;;;;;2.42;1.50;;;;;;;;;;4983156;28;20040;-75
2023/07/20 13:22:30;;;;;;;1.30;1.20;;;;;;;;;;4968701;28;20069;-74
2023/07/20 13:25:15;;;;;;;7.30;1.65;;;;;;;;;;4979113;28;20044;-67
2023/07/20 13:28:00;;;;;;;3.33;2.03;;;;;;;;;;4984304;28;20063;-66
2023/07/20 13:30:46;;;;;;;1.42;1.23;;;;;;;;;;4986207;28;20022;-63
2023/07/20 13:33:31;;;;;;;3.08;1.17;;;;;;;;;;4981537;28;20133;-63
2023/07/20 13:36:16;;;;;;;3.55;1.50;;;;;;;;;;4980826;28;20026;-63
2023/07/20 13:39:04;;;;;;;3.63;1.05;;;;;;;;;;4992946;28;20759;-65
2023/07/20 13:41:49;;;;;;;3.65;1.35;;;;;;;;;;4980837;28;20147;-71
2023/07/20 13:44:35;;;;;;;2.30;1.25;;;;;;;;;;4982931;28;20033;-65
2023/07/20 13:47:20;;;;;;;3.10;1.27;;;;;;;;;;4982321;28;20041;-65
2023/07/20 13:50:05;;;;;;;1.88;1.55;;;;;;;;;;4980746;28;20062;-64
2023/07/20 13:52:50;;;;;;;2.67;1.48;;;;;;;;;;4978938;28;20034;-65
2023/07/20 13:55:36;;;;;;;2.83;1.38;;;;;;;;;;4996303;28;20029;-64
2023/07/20 13:58:22;;;;;;;2.47;1.40;;;;;;;;;;4991767;28;20040;-75
2023/07/20 14:01:07;;;;;;;3.50;1.55;;;;;;;;;;4980273;28;20049;-79
2023/07/20 14:03:52;;;;;;;2.13;1.30;;;;;;;;;;4986796;28;20041;-78
2023/07/20 14:06:38;;;;;;;3.17;1.73;;;;;;;;;;4979838;28;20505;-77
2023/07/20 14:09:23;;;;;;;1.27;1.17;;;;;;;;;;4991613;28;20054;-77
2023/07/20 14:12:12;;;;;;;1.35;1.13;;;;;;;;;;4991369;28;20030;-79
2023/07/20 14:14:57;;;;;;;1.10;1.00;;;;;;;;;;4979257;28;20117;-78
2023/07/20 14:17:42;;;;;;;2.10;1.35;;;;;;;;;;4993102;28;20472;-66
2023/07/20 14:20:27;;;;;;;5.22;1.52;;;;;;;;;;4981975;28;20054;-74
2023/07/20 14:23:13;;;;;;;1.73;1.58;;;;;;;;;;4979180;28;20164;-72
2023/07/20 14:25:58;;;;;;;1.88;1.23;;;;;;;;;;4996164;28;20641;-72
2023/07/20 14:28:44;;;;;;;4.82;1.50;;;;;;;;;;4978827;28;20499;-74
2023/07/20 14:31:29;;;;;;;4.07;1.15;;;;;;;;;;4988344;28;20027;-76
2023/07/20 14:34:15;;;;;;;4.13;1.42;;;;;;;;;;4976079;28;20033;-73
2023/07/20 14:37:00;;;;;;;2.25;1.50;;;;;;;;;;4993246;28;20041;-69
2023/07/20 14:39:45;;;;;;;3.78;1.73;;;;;;;;;;4981381;28;20100;-71
2023/07/20 14:42:32;;;;;;;3.35;1.30;;;;;;;;;;4987371;28;20112;-70
2023/07/20 14:45:17;;;;;;;3.67;1.13;;;;;;;;;;4983493;28;20031;-70
2023/07/20 14:48:02;;;;;;;3.30;1.98;;;;;;;;;;4991233;28;20136;-71
2023/07/20 14:50:48;;;;;;;2.10;1.05;;;;;;;;;;4982655;28;20034;-71
2023/07/20 14:53:34;;;;;;;2.10;1.17;;;;;;;;;;4995926;28;20035;-70
2023/07/20 14:56:19;;;;;;;2.40;1.38;;;;;;;;;;4992287;28;20374;-73
2023/07/20 14:59:05;;;;;;;1.92;1.45;;;;;;;;;;4978200;28;20308;-70
2023/07/20 15:01:51;;;;;;;2.15;1.33;;;;;;;;;;4975288;28;20477;-70
2023/07/20 15:04:36;;;;;;;4.10;1.80;;;;;;;;;;4992691;28;20025;-70
2023/07/20 15:07:22;;;;;;;2.55;1.80;;;;;;;;;;4985443;28;20049;-72
2023/07/20 15:10:07;;;;;;;2.92;1.33;;;;;;;;;;4987272;28;20033;-72
2023/07/20 15:12:52;;;;;;;2.03;1.38;;;;;;;;;;5002217;28;20401;-70
2023/07/20 15:15:37;;;;;;;1.48;1.10;;;;;;;;;;4988789;28;20062;-70
2023/07/20 15:18:23;;;;;;;6.28;1.70;;;;;;;;;;5000539;28;20462;-70
2023/07/20 15:21:08;;;;;;;2.47;1.50;;;;;;;;;;4985756;28;20049;-70
2023/07/20 15:23:53;;;;;;;3.90;1.50;;;;;;;;;;4984358;28;20034;-70
2023/07/20 15:26:41;;;;;;;2.38;1.35;;;;;;;;;;4983934;28;20302;-71
2023/07/20 15:29:26;;;;;;;2.50;1.10;;;;;;;;;;4983899;28;20088;-69
2023/07/20 15:32:11;;;;;;;2.97;1.63;;;;;;;;;;4981813;28;20031;-75
2023/07/20 15:34:56;;;;;;;3.13;1.50;;;;;;;;;;4983273;28;20081;-69
2023/07/20 15:37:42;;;;;;;3.28;1.55;;;;;;;;;;4987265;28;20029;-71
2023/07/20 15:40:27;;;;;;;1.55;1.38;;;;;;;;;;4995912;28;20537;-70
2023/07/20 15:43:12;;;;;;;3.72;1.40;;;;;;;;;;4985961;28;20038;-72
2023/07/20 15:46:07;;;;;;;3.80;1.95;;;;;;;;;;4983481;28;20114;-71
2023/07/20 15:48:52;;;;;;;2.13;1.30;;;;;;;;;;5001604;28;20686;-73
2023/07/20 15:51:38;;;;;;;2.30;1.58;;;;;;;;;;4984418;28;20038;-71
2023/07/20 15:54:23;;;;;;;3.50;1.50;;;;;;;;;;4983485;28;20030;-73
2023/07/20 15:57:08;;;;;;;1.75;1.58;;;;;;;;;;4985514;28;20030;-69
2023/07/20 15:59:54;;;;;;;5.35;1.40;;;;;;;;;;4994450;28;20026;-69
2023/07/20 16:02:39;;;;;;;1.90;1.48;;;;;;;;;;4978068;28;20038;-72
2023/07/20 16:05:24;;;;;;;3.13;1.50;;;;;;;;;;4982872;28;20014;-73
2023/07/20 16:08:09;;;;;;;1.50;1.10;;;;;;;;;;4979262;28;20019;-81
2023/07/20 16:10:57;;;;;;;5.68;1.60;;;;;;;;;;4981100;28;20031;-72
2023/07/20 16:13:44;;;;;;;7.32;1.73;;;;;;;;;;4982909;28;20030;-69
2023/07/20 16:16:30;;;;;;;4.35;1.85;;;;;;;;;;4980685;28;20031;-72
2023/07/20 16:19:15;;;;;;;3.03;1.30;;;;;;;;;;4996783;28;20169;-74
2023/07/20 16:22:01;;;;;;;4.22;1.42;;;;;;;;;;4987183;28;20069;-70
2023/07/20 16:24:46;;;;;;;4.68;1.55;;;;;;;;;;4987758;28;20088;-71
2023/07/20 16:27:31;;;;;;;2.55;1.10;;;;;;;;;;4970433;28;20046;-72
2023/07/20 16:30:16;;;;;;;2.70;1.33;;;;;;;;;;4986233;28;20036;-66
2023/07/20 16:33:02;;;;;;;2.70;1.25;;;;;;;;;;4986561;28;20429;-67
2023/07/20 16:35:48;;;;;;;3.90;1.85;;;;;;;;;;4971819;28;20069;-66